createdAt,value
2017-12-31T15:00:45.821Z,42.123
2017-12-31T15:03:57.613Z,1603.59
2017-12-31T15:04:07.846Z,1604.09
2017-12-31T15:04:18.050Z,1604.2
2017-12-31T15:04:28.272Z,1604.3
2017-12-31T15:04:38.495Z,1604.4
2017-12-31T15:04:48.711Z,1604.5
2017-12-31T15:04:58.905Z,1605
2017-12-31T15:05:09.130Z,1605.11
2017-12-31T15:05:19.387Z,1605.21
2017-12-31T15:05:29.613Z,1605.31
2017-12-31T15:05:39.839Z,1605.41
2017-12-31T15:05:50.056Z,1605.52
2017-12-31T15:06:00.289Z,1606.02
2017-12-31T15:06:10.516Z,1606.12
2017-12-31T15:06:20.733Z,1606.22
2017-12-31T15:06:30.957Z,1606.32
2017-12-31T15:06:41.216Z,1606.43
2017-12-31T15:06:51.433Z,1606.53
2017-12-31T15:07:01.649Z,1607.03
2017-12-31T15:07:11.841Z,1607.13
2017-12-31T15:07:22.060Z,1607.24
2017-12-31T15:07:32.308Z,1607.34
2017-12-31T15:07:42.564Z,1607.44
2017-12-31T15:07:52.788Z,1607.54
2017-12-31T15:08:03.012Z,1608.05
2017-12-31T15:08:13.243Z,1608.15
2017-12-31T15:08:23.511Z,1608.25
2017-12-31T15:08:33.759Z,1608.35
2017-12-31T15:08:44.060Z,1608.46
2017-12-31T15:08:54.333Z,1608.56
2017-12-31T15:09:04.605Z,1609.06
2017-12-31T15:09:14.865Z,1609.16
2017-12-31T15:09:25.072Z,1609.27
2017-12-31T15:09:35.294Z,1609.37
2017-12-31T15:09:45.499Z,1609.47
2017-12-31T15:09:55.764Z,1609.57
2017-12-31T15:10:05.982Z,1610.07
2017-12-31T15:10:16.210Z,1610.18
2017-12-31T15:10:26.455Z,1610.28
2017-12-31T15:10:36.697Z,1610.38
2017-12-31T15:10:46.994Z,1610.48
2017-12-31T15:10:57.278Z,1610.59
2017-12-31T15:11:07.500Z,1611.09
2017-12-31T15:11:17.703Z,1611.19
2017-12-31T15:11:27.904Z,1611.29
2017-12-31T15:11:38.134Z,1611.4
2017-12-31T15:11:48.386Z,1611.5
2017-12-31T15:11:58.672Z,1612
2017-12-31T15:12:08.907Z,1612.1
2017-12-31T15:12:19.145Z,1612.21
2017-12-31T15:12:29.372Z,1612.31
2017-12-31T15:12:39.620Z,1612.41
2017-12-31T15:12:49.830Z,1612.51
2017-12-31T15:13:00.044Z,1613.02
2017-12-31T15:13:10.257Z,1613.12
2017-12-31T15:13:20.467Z,1613.22
2017-12-31T15:13:30.684Z,1613.32
2017-12-31T15:13:40.903Z,1613.42
2017-12-31T15:13:51.119Z,1613.53
2017-12-31T15:14:01.349Z,1614.03
2017-12-31T15:14:11.557Z,1614.13
2017-12-31T15:14:21.747Z,1614.23
2017-12-31T15:14:31.950Z,1614.33
2017-12-31T15:14:42.169Z,1614.44
2017-12-31T15:14:52.376Z,1614.54
2017-12-31T15:15:02.601Z,1615.04
2017-12-31T15:15:12.861Z,1615.14
2017-12-31T15:15:23.087Z,1615.25
2017-12-31T15:15:33.318Z,1615.35
2017-12-31T15:15:43.543Z,1615.45
2017-12-31T15:15:53.756Z,1615.55
2017-12-31T15:16:03.999Z,1616.06
2017-12-31T15:16:14.219Z,1616.16
2017-12-31T15:16:24.421Z,1616.26
2017-12-31T15:16:34.634Z,1616.36
2017-12-31T15:16:44.885Z,1616.46
2017-12-31T15:16:55.091Z,1616.57
2017-12-31T15:17:05.333Z,1617.07
2017-12-31T15:17:15.565Z,1617.17
2017-12-31T15:17:25.779Z,1617.27
2017-12-31T15:17:35.997Z,1617.38
2017-12-31T15:17:46.245Z,1617.48
2017-12-31T15:17:56.506Z,1617.58
2017-12-31T15:18:06.748Z,1618.08
2017-12-31T15:18:16.967Z,1618.18
2017-12-31T15:18:27.171Z,1618.29
2017-12-31T15:18:37.413Z,1618.39
2017-12-31T15:18:47.663Z,1618.49
2017-12-31T15:18:57.920Z,1618.59
2017-12-31T15:19:08.120Z,1619.1
2017-12-31T15:19:18.344Z,1619.2
2017-12-31T15:19:28.557Z,1619.3
2017-12-31T15:19:38.776Z,1619.4
2017-12-31T15:19:48.996Z,1619.51
2017-12-31T15:19:59.208Z,1620.01
2017-12-31T15:20:09.434Z,1620.11
2017-12-31T15:20:19.639Z,1620.21
2017-12-31T15:20:29.864Z,1620.31
2017-12-31T15:20:40.136Z,1620.42
2017-12-31T15:20:50.359Z,1620.52
2017-12-31T15:21:00.694Z,1621.02
2017-12-31T15:21:11.002Z,1621.13
2017-12-31T15:21:21.211Z,1621.23
2017-12-31T15:21:31.450Z,1621.33
2017-12-31T15:21:41.817Z,1621.43
2017-12-31T15:21:52.079Z,1621.54
2017-12-31T15:22:02.395Z,1622.04
2017-12-31T15:22:12.601Z,1622.14
2017-12-31T15:22:22.895Z,1622.24
2017-12-31T15:22:33.119Z,1622.35
2017-12-31T15:22:43.453Z,1622.45
2017-12-31T15:22:54.103Z,1622.55
2017-12-31T15:23:04.451Z,1623.06
2017-12-31T15:23:14.664Z,1623.16
2017-12-31T15:23:24.889Z,1623.26
2017-12-31T15:23:35.112Z,1623.37
2017-12-31T15:23:45.335Z,1623.47
2017-12-31T15:23:55.629Z,1623.57
2017-12-31T15:24:05.869Z,1624.07
2017-12-31T15:24:16.092Z,1624.18
2017-12-31T15:24:26.301Z,1624.28
2017-12-31T15:24:36.543Z,1624.38
2017-12-31T15:24:46.809Z,1624.48
2017-12-31T15:24:57.074Z,1624.59
2017-12-31T15:25:07.276Z,1625.09
2017-12-31T15:25:17.515Z,1625.19
2017-12-31T15:25:28.473Z,1625.29
2017-12-31T15:25:38.682Z,1625.4
2017-12-31T15:25:48.910Z,1625.5
2017-12-31T15:25:59.128Z,1626.01
2017-12-31T15:26:09.351Z,1626.11
2017-12-31T15:26:19.589Z,1626.21
2017-12-31T15:26:29.799Z,1626.31
2017-12-31T15:26:40.001Z,1626.42
2017-12-31T15:26:50.198Z,1626.52
2017-12-31T15:27:00.412Z,1627.02
2017-12-31T15:27:10.630Z,1627.12
2017-12-31T15:27:20.835Z,1627.22
2017-12-31T15:27:31.164Z,1627.33
2017-12-31T15:27:41.467Z,1627.43
2017-12-31T15:27:51.793Z,1627.53
2017-12-31T15:28:02.036Z,1628.04
2017-12-31T15:28:12.240Z,1628.14
2017-12-31T15:28:22.472Z,1628.24
2017-12-31T15:28:32.688Z,1628.34
2017-12-31T15:28:42.894Z,1628.44
2017-12-31T15:28:53.173Z,1628.55
2017-12-31T15:29:03.410Z,1629.05
2017-12-31T15:29:13.627Z,1629.15
2017-12-31T15:29:23.895Z,1629.25
2017-12-31T15:29:34.126Z,1629.36
2017-12-31T15:29:44.334Z,1629.46
2017-12-31T15:29:54.574Z,1629.56
2017-12-31T15:30:04.820Z,1630.06
2017-12-31T15:30:15.060Z,1630.17
2017-12-31T15:30:25.285Z,1630.27
2017-12-31T15:30:35.488Z,1630.37
2017-12-31T15:30:45.716Z,1630.47
2017-12-31T15:30:56.003Z,1630.57
2017-12-31T15:31:06.350Z,1631.08
2017-12-31T15:31:16.743Z,1631.18
2017-12-31T15:31:26.976Z,1631.28
2017-12-31T15:31:37.200Z,1631.39
2017-12-31T15:31:47.410Z,1631.49
2017-12-31T15:31:57.625Z,1631.59
2017-12-31T15:32:07.828Z,1632.09
2017-12-31T15:32:18.042Z,1632.2
2017-12-31T15:32:28.258Z,1632.3
2017-12-31T15:32:38.476Z,1632.4
2017-12-31T15:32:48.716Z,1632.5
2017-12-31T15:32:58.971Z,1633
2017-12-31T15:33:18.953Z,33.2
2017-12-31T15:33:29.180Z,33.31
2017-12-31T15:33:39.425Z,33.41
2017-12-31T15:33:49.662Z,33.51
2017-12-31T15:33:59.915Z,34.01
2017-12-31T15:34:10.154Z,34.12
2017-12-31T15:34:20.375Z,34.22
2017-12-31T15:34:30.591Z,34.32
2017-12-31T15:34:40.801Z,34.42
2017-12-31T15:34:51.003Z,34.53
2017-12-31T15:35:01.229Z,35.03
2017-12-31T15:35:11.448Z,35.13
2017-12-31T15:35:21.647Z,35.23
2017-12-31T15:35:31.894Z,35.33
2017-12-31T15:35:42.119Z,35.44
2017-12-31T15:35:52.520Z,35.54
2017-12-31T15:36:02.806Z,36.04
2017-12-31T15:36:13.023Z,36.15
2017-12-31T15:36:23.217Z,36.25
2017-12-31T15:36:33.406Z,36.35
2017-12-31T15:36:43.641Z,36.45
2017-12-31T15:36:53.847Z,36.55
2017-12-31T15:37:04.047Z,37.06
2017-12-31T15:37:14.277Z,37.16
2017-12-31T15:37:24.478Z,37.26
2017-12-31T15:37:34.704Z,37.36
2017-12-31T15:37:44.951Z,37.46
2017-12-31T15:37:55.175Z,37.57
2017-12-31T15:38:05.407Z,38.07
2017-12-31T15:38:15.680Z,38.17
2017-12-31T15:38:25.910Z,38.27
2017-12-31T15:38:36.120Z,38.38
2017-12-31T15:38:46.327Z,38.48
2017-12-31T15:38:56.527Z,38.58
2017-12-31T15:39:06.771Z,39.08
2017-12-31T15:39:17.066Z,39.19
2017-12-31T15:39:27.340Z,39.29
2017-12-31T15:39:37.591Z,39.39
2017-12-31T15:39:47.815Z,39.49
2017-12-31T15:39:58.041Z,40
2017-12-31T15:40:08.269Z,40.1
2017-12-31T15:40:18.477Z,40.2
2017-12-31T15:40:28.699Z,40.3
2017-12-31T15:40:38.906Z,40.4
2017-12-31T15:40:49.108Z,40.51
2017-12-31T15:40:59.329Z,41.01
2017-12-31T15:41:09.539Z,41.11
2017-12-31T15:41:19.794Z,41.21
2017-12-31T15:41:30.017Z,41.32
2017-12-31T15:41:40.222Z,41.42
2017-12-31T15:41:50.419Z,41.52
2017-12-31T15:42:00.690Z,42.02
2017-12-31T15:42:10.903Z,42.12
2017-12-31T15:42:21.120Z,42.23
2017-12-31T15:42:31.335Z,42.33
2017-12-31T15:42:41.536Z,42.43
2017-12-31T15:42:51.754Z,42.53
2017-12-31T15:43:01.941Z,43.03
2017-12-31T15:43:12.147Z,43.14
2017-12-31T15:43:22.346Z,43.24
2017-12-31T15:43:32.550Z,43.34
2017-12-31T15:43:42.753Z,43.44
2017-12-31T15:43:52.957Z,43.54
2017-12-31T15:44:03.169Z,44.05
2017-12-31T15:44:13.392Z,44.15
2017-12-31T15:44:23.603Z,44.25
2017-12-31T15:44:33.825Z,44.35
2017-12-31T15:44:44.052Z,44.46
2017-12-31T15:44:54.299Z,44.56
2017-12-31T15:45:04.511Z,45.06
2017-12-31T15:45:14.742Z,45.16
2017-12-31T15:45:24.974Z,45.26
2017-12-31T15:45:35.248Z,45.37
2017-12-31T15:45:45.463Z,45.47
2017-12-31T15:45:55.686Z,45.57
2017-12-31T15:46:05.907Z,46.07
2017-12-31T15:46:16.124Z,46.18
2017-12-31T15:46:26.331Z,46.28
2017-12-31T15:46:36.562Z,46.38
2017-12-31T15:46:46.780Z,46.48
2017-12-31T15:46:56.984Z,46.58
2017-12-31T15:47:07.194Z,47.09
2017-12-31T15:47:17.389Z,47.19
2017-12-31T15:47:27.611Z,47.29
2017-12-31T15:47:37.828Z,47.39
2017-12-31T15:47:48.062Z,47.5
2017-12-31T15:47:58.252Z,48
2017-12-31T15:48:08.448Z,48.1
2017-12-31T15:48:18.660Z,48.2
2017-12-31T15:48:28.970Z,48.3
2017-12-31T15:48:39.189Z,48.41
2017-12-31T15:48:49.389Z,48.51
2017-12-31T15:48:59.612Z,49.01
2017-12-31T15:49:09.816Z,49.11
2017-12-31T15:49:20.037Z,49.22
2017-12-31T15:49:30.253Z,49.32
2017-12-31T15:49:40.446Z,49.42
2017-12-31T15:49:50.654Z,49.52
2017-12-31T15:50:00.871Z,50.02
2017-12-31T15:50:11.121Z,50.13
2017-12-31T15:50:21.364Z,50.23
2017-12-31T15:50:31.557Z,50.33
2017-12-31T15:50:41.775Z,50.43
2017-12-31T15:50:51.992Z,50.54
2017-12-31T15:51:02.203Z,51.04
2017-12-31T15:51:12.419Z,51.14
2017-12-31T15:51:22.652Z,51.24
2017-12-31T15:51:32.860Z,51.34
2017-12-31T15:51:43.066Z,51.45
2017-12-31T15:51:53.266Z,51.55
2017-12-31T15:52:03.488Z,52.05
2017-12-31T15:52:13.741Z,52.15
2017-12-31T15:52:23.954Z,52.25
2017-12-31T15:52:34.155Z,52.36
2017-12-31T15:52:44.362Z,52.46
2017-12-31T15:52:54.597Z,52.56
2017-12-31T15:53:04.823Z,53.06
2017-12-31T15:53:15.022Z,53.17
2017-12-31T15:53:25.230Z,53.27
2017-12-31T15:53:35.444Z,53.37
2017-12-31T15:53:45.659Z,53.47
2017-12-31T15:53:55.894Z,53.57
2017-12-31T15:54:06.107Z,54.08
2017-12-31T15:54:16.325Z,54.18
2017-12-31T15:54:26.579Z,54.28
2017-12-31T15:54:36.896Z,54.38
2017-12-31T15:54:47.301Z,54.49
2017-12-31T15:54:57.542Z,54.59
2017-12-31T15:55:07.775Z,55.09
2017-12-31T15:55:17.990Z,55.19
2017-12-31T15:55:28.227Z,55.3
2017-12-31T15:55:38.471Z,55.4
2017-12-31T15:55:48.730Z,55.5
2017-12-31T15:55:58.970Z,56
2017-12-31T15:56:09.213Z,56.11
2017-12-31T15:56:19.426Z,56.21
2017-12-31T15:56:29.642Z,56.31
2017-12-31T15:56:39.868Z,56.41
2017-12-31T15:56:50.097Z,56.52
2017-12-31T15:57:00.294Z,57.02
2017-12-31T15:57:10.503Z,57.12
2017-12-31T15:57:20.716Z,57.22
2017-12-31T15:57:30.939Z,57.32
2017-12-31T15:57:41.237Z,57.43
2017-12-31T15:57:51.500Z,57.53
2017-12-31T15:58:01.725Z,58.03
2017-12-31T15:58:11.943Z,58.13
2017-12-31T15:58:22.244Z,58.24
2017-12-31T15:58:32.511Z,58.34
2017-12-31T15:58:42.713Z,58.44
2017-12-31T15:58:53.111Z,58.55
2017-12-31T15:59:03.355Z,59.05
2017-12-31T15:59:13.618Z,59.15
2017-12-31T15:59:23.844Z,59.25
2017-12-31T15:59:34.091Z,59.36
2017-12-31T15:59:44.291Z,59.46
2017-12-31T15:59:54.510Z,59.56
2017-12-31T16:08:18.928Z,12.2
2017-12-31T16:08:29.163Z,12.31
2017-12-31T16:08:39.421Z,12.41
2017-12-31T16:08:49.656Z,12.51
2017-12-31T16:08:59.851Z,12.01
2017-12-31T16:09:10.061Z,12.12
2017-12-31T16:09:20.261Z,12.22
2017-12-31T16:09:30.566Z,12.32
2017-12-31T16:09:40.876Z,12.42
2017-12-31T16:09:51.120Z,12.53
2017-12-31T16:10:01.398Z,12.03
2017-12-31T16:10:11.653Z,12.13
2017-12-31T16:10:21.865Z,12.23
2017-12-31T16:10:32.092Z,12.34
2017-12-31T16:10:42.301Z,12.44
2017-12-31T16:10:52.508Z,12.54
2017-12-31T16:11:02.748Z,12.04
2017-12-31T16:11:13.022Z,12.15
2017-12-31T16:11:23.370Z,12.25
2017-12-31T16:11:33.655Z,12.35
2017-12-31T16:11:43.875Z,12.45
2017-12-31T16:11:54.103Z,12.56
2017-12-31T16:12:04.365Z,12.06
2017-12-31T16:12:14.600Z,12.16
2017-12-31T16:12:24.800Z,12.26
2017-12-31T16:12:35.033Z,12.37
2017-12-31T16:12:45.255Z,12.47
2017-12-31T16:12:55.457Z,12.57
2017-12-31T16:13:05.670Z,12.07
2017-12-31T16:13:15.879Z,12.17
2017-12-31T16:13:26.114Z,12.28
2017-12-31T16:13:36.310Z,12.38
2017-12-31T16:13:46.524Z,12.48
2017-12-31T16:13:56.723Z,12.58
2017-12-31T16:14:06.931Z,12.08
2017-12-31T16:14:17.151Z,12.19
2017-12-31T16:14:27.372Z,12.29
2017-12-31T16:14:37.582Z,12.39
2017-12-31T16:14:47.828Z,12.49
2017-12-31T16:14:58.051Z,12
2017-12-31T16:15:08.291Z,12.1
2017-12-31T16:15:18.499Z,12.2
2017-12-31T16:15:28.725Z,12.3
2017-12-31T16:15:38.959Z,12.4
2017-12-31T16:15:49.168Z,12.51
2017-12-31T16:15:59.379Z,12.01
2017-12-31T16:16:09.569Z,12.11
2017-12-31T16:16:19.808Z,12.21
2017-12-31T16:16:30.043Z,12.32
2017-12-31T16:16:40.262Z,12.42
2017-12-31T16:16:50.474Z,12.52
2017-12-31T16:17:00.684Z,12.02
2017-12-31T16:17:10.906Z,12.12
2017-12-31T16:17:21.116Z,12.23
2017-12-31T16:17:31.332Z,12.33
2017-12-31T16:17:41.528Z,12.43
2017-12-31T16:17:51.771Z,12.53
2017-12-31T16:18:02.008Z,12.04
2017-12-31T16:18:12.225Z,12.14
2017-12-31T16:18:22.423Z,12.24
2017-12-31T16:18:32.629Z,12.34
2017-12-31T16:18:42.839Z,12.44
2017-12-31T16:18:53.077Z,12.55
2017-12-31T16:19:03.283Z,12.05
2017-12-31T16:19:13.486Z,12.15
2017-12-31T16:19:23.710Z,12.25
2017-12-31T16:19:33.933Z,12.35
2017-12-31T16:19:44.160Z,12.46
2017-12-31T16:19:54.393Z,12.56
2017-12-31T16:20:04.604Z,12.06
2017-12-31T16:20:14.813Z,12.16
2017-12-31T16:20:25.027Z,12.27
2017-12-31T16:20:35.248Z,12.37
2017-12-31T16:20:45.466Z,12.47
2017-12-31T16:20:55.693Z,12.57
2017-12-31T16:21:05.903Z,12.07
2017-12-31T16:21:16.113Z,12.18
2017-12-31T16:21:26.331Z,12.28
2017-12-31T16:21:36.535Z,12.38
2017-12-31T16:21:46.740Z,12.48
2017-12-31T16:21:56.953Z,12.58
2017-12-31T16:22:07.158Z,12.09
2017-12-31T16:22:17.350Z,12.19
2017-12-31T16:22:27.546Z,12.29
2017-12-31T16:22:37.768Z,12.39
2017-12-31T16:22:47.989Z,12.49
2017-12-31T16:22:58.205Z,12
2017-12-31T16:23:08.406Z,12.1
2017-12-31T16:23:18.636Z,12.2
2017-12-31T16:23:28.849Z,12.3
2017-12-31T16:23:39.061Z,12.41
2017-12-31T16:23:49.263Z,12.51
2017-12-31T16:23:59.482Z,12.01
2017-12-31T16:24:09.699Z,12.11
2017-12-31T16:24:19.912Z,12.21
2017-12-31T16:24:30.121Z,12.32
2017-12-31T16:24:40.332Z,12.42
2017-12-31T16:24:50.527Z,12.52
2017-12-31T16:25:00.792Z,12.02
2017-12-31T16:25:11.019Z,12.13
2017-12-31T16:25:21.250Z,12.23
2017-12-31T16:25:31.465Z,12.33
2017-12-31T16:25:41.686Z,12.43
2017-12-31T16:25:51.905Z,12.53
2017-12-31T16:26:02.122Z,12.04
2017-12-31T16:26:12.324Z,12.14
2017-12-31T16:26:22.546Z,12.24
2017-12-31T16:26:32.768Z,12.34
2017-12-31T16:26:42.973Z,12.44
2017-12-31T16:26:53.203Z,12.55
2017-12-31T16:27:03.429Z,12.05
2017-12-31T16:27:13.669Z,12.15
2017-12-31T16:27:23.891Z,12.25
2017-12-31T16:27:34.100Z,12.36
2017-12-31T16:27:44.335Z,12.46
2017-12-31T16:27:54.527Z,12.56
2017-12-31T16:28:04.734Z,12.06
2017-12-31T16:28:14.948Z,12.16
2017-12-31T16:28:25.152Z,12.27
2017-12-31T16:28:35.366Z,12.37
2017-12-31T16:28:45.575Z,12.47
2017-12-31T16:28:55.787Z,12.57
2017-12-31T16:29:06.023Z,12.08
2017-12-31T16:29:16.254Z,12.18
2017-12-31T16:29:26.484Z,12.28
2017-12-31T16:29:36.682Z,12.38
2017-12-31T16:29:46.881Z,12.48
2017-12-31T16:29:57.075Z,12.59
2017-12-31T16:30:07.317Z,12.09
2017-12-31T16:30:17.536Z,12.19
2017-12-31T16:30:27.743Z,12.29
2017-12-31T16:30:37.966Z,12.39
2017-12-31T16:30:48.197Z,12.5
2017-12-31T16:30:58.413Z,12
2017-12-31T16:31:08.625Z,12.1
2017-12-31T16:31:18.841Z,12.2
2017-12-31T16:31:29.082Z,12.31
2017-12-31T16:31:39.362Z,12.41
2017-12-31T16:31:49.602Z,12.51
2017-12-31T16:31:59.843Z,12.01
2017-12-31T16:32:10.080Z,12.12
2017-12-31T16:32:23.451Z,12.25
2017-12-31T16:32:33.741Z,12.35
2017-12-31T16:32:43.975Z,12.45
2017-12-31T16:32:54.188Z,12.56
2017-12-31T16:33:04.410Z,12.06
2017-12-31T16:33:14.632Z,12.16
2017-12-31T16:33:24.830Z,12.26
2017-12-31T16:33:35.075Z,12.37
2017-12-31T16:33:45.289Z,12.47
2017-12-31T16:33:55.523Z,12.57
2017-12-31T16:34:05.745Z,12.07
2017-12-31T16:34:15.976Z,12.17
2017-12-31T16:34:26.225Z,12.28
2017-12-31T16:34:36.438Z,12.38
2017-12-31T16:34:46.670Z,12.48
2017-12-31T16:34:56.874Z,12.58
2017-12-31T16:35:07.150Z,12.09
2017-12-31T16:35:17.372Z,12.19
2017-12-31T16:35:27.577Z,12.29
2017-12-31T16:35:37.762Z,12.39
2017-12-31T16:35:47.982Z,12.49
2017-12-31T16:35:58.179Z,12
2017-12-31T16:36:08.477Z,12.1
2017-12-31T16:36:18.806Z,12.2
2017-12-31T16:36:29.022Z,12.31
2017-12-31T16:36:39.242Z,12.41
2017-12-31T16:36:49.450Z,12.51
2017-12-31T16:36:59.681Z,12.01
2017-12-31T16:37:09.908Z,12.11
2017-12-31T16:37:20.136Z,12.22
2017-12-31T16:37:30.365Z,12.32
2017-12-31T16:37:40.581Z,12.42
2017-12-31T16:37:50.804Z,12.52
2017-12-31T16:38:01.020Z,12.03
2017-12-31T16:38:11.244Z,12.13
2017-12-31T16:38:21.467Z,12.23
2017-12-31T16:38:31.673Z,12.33
2017-12-31T16:38:41.900Z,12.43
2017-12-31T16:38:52.115Z,12.54
2017-12-31T16:39:02.347Z,12.04
2017-12-31T16:39:12.555Z,12.14
2017-12-31T16:39:22.756Z,12.24
2017-12-31T16:39:32.956Z,12.34
2017-12-31T16:39:43.175Z,12.45
2017-12-31T16:39:53.404Z,12.55
2017-12-31T16:40:03.596Z,12.05
2017-12-31T16:40:13.862Z,12.15
2017-12-31T16:40:24.129Z,12.26
2017-12-31T16:40:34.360Z,12.36
2017-12-31T16:40:44.598Z,12.46
2017-12-31T16:40:54.819Z,12.56
2017-12-31T16:41:05.032Z,12.07
2017-12-31T16:41:15.258Z,12.17
2017-12-31T16:41:25.471Z,12.27
2017-12-31T16:41:35.692Z,12.37
2017-12-31T16:41:45.910Z,12.47
2017-12-31T16:41:56.147Z,12.58
2017-12-31T16:42:06.347Z,12.08
2017-12-31T16:42:16.558Z,12.18
2017-12-31T16:42:26.773Z,12.28
2017-12-31T16:42:36.991Z,12.38
2017-12-31T16:42:47.206Z,12.49
2017-12-31T16:42:57.446Z,12.59
2017-12-31T16:43:07.654Z,12.09
2017-12-31T16:43:17.858Z,12.19
2017-12-31T16:43:28.113Z,12.3
2017-12-31T16:43:38.356Z,12.4
2017-12-31T16:43:48.726Z,12.5
2017-12-31T16:43:59.021Z,12.01
2017-12-31T16:44:09.231Z,12.11
2017-12-31T16:44:19.442Z,12.21
2017-12-31T16:44:29.638Z,12.31
2017-12-31T16:44:39.852Z,12.41
2017-12-31T16:44:50.048Z,12.52
2017-12-31T16:45:00.264Z,12.02
2017-12-31T16:45:10.449Z,12.12
2017-12-31T16:45:20.682Z,12.22
2017-12-31T16:45:30.887Z,12.32
2017-12-31T16:45:41.104Z,12.43
2017-12-31T16:45:51.338Z,12.53
2017-12-31T16:46:01.581Z,12.03
2017-12-31T16:46:11.806Z,12.13
2017-12-31T16:46:22.026Z,12.24
2017-12-31T16:46:32.253Z,12.34
2017-12-31T16:46:42.475Z,12.44
2017-12-31T16:46:52.693Z,12.54
2017-12-31T16:47:02.910Z,12.04
2017-12-31T16:47:13.180Z,12.15
2017-12-31T16:47:23.471Z,12.25
2017-12-31T16:47:33.694Z,12.35
2017-12-31T16:47:43.899Z,12.45
2017-12-31T16:47:54.114Z,12.56
2017-12-31T16:48:04.328Z,12.06
2017-12-31T16:48:14.556Z,12.16
2017-12-31T16:48:24.789Z,12.26
2017-12-31T16:48:35.001Z,12.36
2017-12-31T16:48:45.207Z,12.47
2017-12-31T16:48:55.410Z,12.57
2017-12-31T16:49:05.688Z,12.07
2017-12-31T16:49:15.883Z,12.17
2017-12-31T16:49:26.099Z,12.28
2017-12-31T16:49:36.325Z,12.38
2017-12-31T16:49:46.523Z,12.48
2017-12-31T16:49:56.746Z,12.58
2017-12-31T16:50:06.969Z,12.08
2017-12-31T16:50:17.220Z,12.19
2017-12-31T16:50:27.457Z,12.29
2017-12-31T16:50:37.688Z,12.39
2017-12-31T16:50:47.906Z,12.49
2017-12-31T16:50:58.125Z,12
2017-12-31T16:51:08.345Z,12.1
2017-12-31T16:51:18.578Z,12.2
2017-12-31T16:51:28.786Z,12.3
2017-12-31T16:51:39.002Z,12.4
2017-12-31T16:51:49.289Z,12.51
2017-12-31T16:51:59.552Z,12.01
2017-12-31T16:52:09.792Z,12.11
2017-12-31T16:52:20.001Z,12.21
2017-12-31T16:52:30.216Z,12.32
2017-12-31T16:52:40.427Z,12.42
2017-12-31T16:52:50.652Z,12.52
2017-12-31T16:53:00.863Z,12.02
2017-12-31T16:53:11.060Z,12.13
2017-12-31T16:53:21.293Z,12.23
2017-12-31T16:53:31.515Z,12.33
2017-12-31T16:53:41.764Z,12.43
2017-12-31T16:53:51.971Z,12.53
2017-12-31T16:54:02.156Z,12.04
2017-12-31T16:54:12.385Z,12.14
2017-12-31T16:54:22.602Z,12.24
2017-12-31T16:54:32.809Z,12.34
2017-12-31T16:54:43.023Z,12.45
2017-12-31T16:54:53.247Z,12.55
2017-12-31T16:55:03.461Z,12.05
2017-12-31T16:55:13.657Z,12.15
2017-12-31T16:55:23.865Z,12.25
2017-12-31T16:55:34.124Z,12.36
2017-12-31T16:55:44.341Z,12.46
2017-12-31T16:55:54.581Z,12.56
2017-12-31T16:56:04.829Z,12.06
2017-12-31T16:56:15.037Z,12.17
2017-12-31T16:56:25.227Z,12.27
2017-12-31T16:56:35.454Z,12.37
2017-12-31T16:56:45.677Z,12.47
2017-12-31T16:56:55.951Z,12.57
2017-12-31T16:57:06.205Z,12.08
2017-12-31T16:57:16.404Z,12.18
2017-12-31T16:57:26.608Z,12.28
2017-12-31T16:57:36.892Z,12.38
2017-12-31T16:57:47.112Z,12.49
2017-12-31T16:57:57.311Z,12.59
2017-12-31T16:58:07.517Z,12.09
2017-12-31T16:58:17.740Z,12.19
2017-12-31T16:58:27.958Z,12.29
2017-12-31T16:58:38.160Z,12.4
2017-12-31T16:58:48.388Z,12.5
2017-12-31T16:58:58.588Z,12
2017-12-31T16:59:08.842Z,12.1
2017-12-31T16:59:19.035Z,12.21
2017-12-31T16:59:29.279Z,12.31
2017-12-31T16:59:39.491Z,12.41
2017-12-31T16:59:49.713Z,12.51
2017-12-31T16:59:59.918Z,12.01
2017-12-31T17:00:10.111Z,12.12
2017-12-31T17:00:20.341Z,12.22
2017-12-31T17:00:30.557Z,12.32
2017-12-31T17:00:40.783Z,12.42
2017-12-31T17:00:51.007Z,12.53
2017-12-31T17:01:01.233Z,12.03
2017-12-31T17:01:11.461Z,12.13
2017-12-31T17:01:21.677Z,12.23
2017-12-31T17:01:31.964Z,12.33
2017-12-31T17:01:42.191Z,12.44
2017-12-31T17:01:52.400Z,12.54
2017-12-31T17:02:02.631Z,12.04
2017-12-31T17:02:12.847Z,12.14
2017-12-31T17:02:23.072Z,12.25
2017-12-31T17:02:33.297Z,12.35
2017-12-31T17:02:43.514Z,12.45
2017-12-31T17:02:53.741Z,12.55
2017-12-31T17:03:03.939Z,12.05
2017-12-31T17:03:14.142Z,12.16
2017-12-31T17:03:24.357Z,12.26
2017-12-31T17:03:34.571Z,12.36
2017-12-31T17:03:44.784Z,12.46
2017-12-31T17:03:54.992Z,12.56
2017-12-31T17:04:05.199Z,12.07
2017-12-31T17:04:15.415Z,12.17
2017-12-31T17:04:25.625Z,12.27
2017-12-31T17:04:35.845Z,12.37
2017-12-31T17:04:46.064Z,12.48
2017-12-31T17:04:56.280Z,12.58
2017-12-31T17:05:06.489Z,12.08
2017-12-31T17:05:16.679Z,12.18
2017-12-31T17:05:26.876Z,12.28
2017-12-31T17:05:37.098Z,12.39
2017-12-31T17:05:47.323Z,12.49
2017-12-31T17:05:57.546Z,12.59
2017-12-31T17:06:07.759Z,12.09
2017-12-31T17:06:17.973Z,12.19
2017-12-31T17:06:28.178Z,12.3
2017-12-31T17:06:38.380Z,12.4
2017-12-31T17:06:48.594Z,12.5
2017-12-31T17:06:58.792Z,12
2017-12-31T17:07:08.996Z,12.1
2017-12-31T17:07:19.201Z,12.21
2017-12-31T17:07:29.475Z,12.31
2017-12-31T17:07:39.703Z,12.41
2017-12-31T17:07:49.938Z,12.51
2017-12-31T17:08:00.153Z,12.02
2017-12-31T17:08:10.384Z,12.12
2017-12-31T17:08:20.603Z,12.22
2017-12-31T17:08:30.826Z,12.32
2017-12-31T17:08:41.078Z,12.43
2017-12-31T17:08:51.524Z,12.53
2017-12-31T17:09:01.735Z,12.03
2017-12-31T17:09:11.937Z,12.13
2017-12-31T17:09:22.158Z,12.24
2017-12-31T17:09:32.392Z,12.34
2017-12-31T17:09:42.601Z,12.44
2017-12-31T17:09:52.796Z,12.54
2017-12-31T17:10:03.016Z,12.05
2017-12-31T17:10:13.240Z,12.15
2017-12-31T17:10:23.432Z,12.25
2017-12-31T17:10:33.640Z,12.35
2017-12-31T17:10:43.873Z,12.45
2017-12-31T17:10:54.154Z,12.56
2017-12-31T17:11:04.398Z,12.06
2017-12-31T17:11:14.638Z,12.16
2017-12-31T17:11:24.861Z,12.26
2017-12-31T17:11:35.063Z,12.37
2017-12-31T19:51:30.907Z,12.33
